createdAt,value
2022-12-19T00:01:48.966Z,13.23
2022-12-19T00:04:12.390Z,12.87
2022-12-19T00:06:33.957Z,13.90
2022-12-19T00:08:57.039Z,13.33
2022-12-19T00:11:20.487Z,13.03
2022-12-19T00:13:42.841Z,13.70
2022-12-19T00:16:13.662Z,12.87
2022-12-19T00:18:35.232Z,13.70
2022-12-19T00:20:59.014Z,12.80
2022-12-19T00:23:20.537Z,12.73
2022-12-19T00:25:42.046Z,12.30
2022-12-19T00:28:04.441Z,12.97
2022-12-19T00:30:26.086Z,13.67
2022-12-19T00:32:47.759Z,15.13
2022-12-19T00:35:09.534Z,12.50
2022-12-19T00:37:31.027Z,14.17
2022-12-19T00:39:52.548Z,12.60
2022-12-19T00:42:14.043Z,13.03
2022-12-19T00:44:35.550Z,15.53
2022-12-19T00:46:57.025Z,13.77
2022-12-19T00:49:18.536Z,13.57
2022-12-19T00:51:40.145Z,12.43
2022-12-19T00:54:02.288Z,13.27
2022-12-19T00:56:29.148Z,13.27
2022-12-19T00:58:50.884Z,12.47
2022-12-19T01:01:17.864Z,13.27
2022-12-19T01:03:39.601Z,13.63
2022-12-19T01:06:01.409Z,14.00
2022-12-19T01:08:23.348Z,13.07
2022-12-19T01:10:48.066Z,13.50
2022-12-19T01:13:09.547Z,13.47
2022-12-19T01:15:31.044Z,13.27
2022-12-19T01:17:52.558Z,13.40
2022-12-19T01:20:17.604Z,12.50
2022-12-19T01:22:41.785Z,12.67
2022-12-19T01:25:03.588Z,12.40
2022-12-19T01:27:25.099Z,13.53
2022-12-19T01:29:52.683Z,13.73
2022-12-19T01:32:14.451Z,12.97
2022-12-19T01:34:35.948Z,14.07
2022-12-19T01:36:57.433Z,13.63
2022-12-19T01:39:18.962Z,14.43
2022-12-19T01:41:40.538Z,14.67
2022-12-19T01:44:05.642Z,13.87
2022-12-19T01:46:51.616Z,12.40
2022-12-19T01:49:26.356Z,13.90
2022-12-19T01:51:49.493Z,13.20
2022-12-19T01:54:15.769Z,12.63
2022-12-19T01:56:42.389Z,13.27
2022-12-19T01:59:10.264Z,14.37
2022-12-19T02:01:32.115Z,13.27
2022-12-19T02:03:56.239Z,14.73
2022-12-19T02:06:17.847Z,14.20
2022-12-19T02:08:41.922Z,13.30
2022-12-19T02:11:03.518Z,14.67
2022-12-19T02:13:25.118Z,14.10
2022-12-19T02:15:56.113Z,14.40
2022-12-19T02:18:38.845Z,14.17
2022-12-19T02:21:21.900Z,14.73
2022-12-19T02:24:04.467Z,14.20
2022-12-19T02:26:53.496Z,14.67
2022-12-19T02:29:33.525Z,14.73
2022-12-19T02:32:28.858Z,14.40
2022-12-19T02:34:58.264Z,14.70
2022-12-19T02:37:36.230Z,14.97
2022-12-19T02:40:16.114Z,14.30
2022-12-19T02:42:45.645Z,14.57
2022-12-19T02:45:10.008Z,14.17
2022-12-19T02:47:32.593Z,14.73
2022-12-19T02:49:54.157Z,14.40
2022-12-19T02:52:21.496Z,15.90
2022-12-19T02:54:44.883Z,15.33
2022-12-19T02:57:51.177Z,15.53
2022-12-19T03:00:22.047Z,16.57
2022-12-19T03:03:00.426Z,14.80
2022-12-19T03:05:35.365Z,14.47
2022-12-19T03:08:09.234Z,14.43
2022-12-19T03:10:46.084Z,14.93
2022-12-19T03:13:27.090Z,13.50
2022-12-19T03:15:49.303Z,14.63
2022-12-19T03:18:11.346Z,15.17
2022-12-19T03:20:57.784Z,14.87
2022-12-19T03:23:19.943Z,14.10
2022-12-19T03:25:45.777Z,14.30
2022-12-19T03:28:12.223Z,15.60
2022-12-19T03:30:36.219Z,15.93
2022-12-19T03:32:58.175Z,16.13
2022-12-19T03:35:28.616Z,15.00
2022-12-19T03:37:52.383Z,14.70
2022-12-19T03:40:25.986Z,14.87
2022-12-19T03:43:08.619Z,15.67
2022-12-19T03:45:48.633Z,15.93
2022-12-19T03:48:17.673Z,15.63
2022-12-19T03:51:16.581Z,15.80
2022-12-19T03:54:29.147Z,14.90
2022-12-19T03:56:58.152Z,14.50
2022-12-19T03:59:28.166Z,16.10
2022-12-19T04:01:52.002Z,14.30
2022-12-19T04:04:14.274Z,15.90
2022-12-19T04:06:37.691Z,15.23
2022-12-19T04:09:00.153Z,15.87
2022-12-19T04:11:22.526Z,15.20
2022-12-19T04:13:54.687Z,15.30
2022-12-19T04:16:27.664Z,15.43
2022-12-19T04:18:56.268Z,15.53
2022-12-19T04:21:25.192Z,15.97
2022-12-19T04:23:52.991Z,15.40
2022-12-19T04:26:16.597Z,16.90
2022-12-19T04:28:47.140Z,16.50
2022-12-19T04:31:13.512Z,16.63
2022-12-19T04:33:35.000Z,16.83
2022-12-19T04:35:56.545Z,16.03
2022-12-19T04:38:18.057Z,15.87
2022-12-19T04:40:41.778Z,16.50
2022-12-19T04:43:03.439Z,16.80
2022-12-19T04:45:24.928Z,16.20
2022-12-19T04:47:46.701Z,17.97
2022-12-19T04:50:09.649Z,16.97
2022-12-19T04:52:31.196Z,17.97
2022-12-19T04:54:52.704Z,16.53
2022-12-19T04:57:14.222Z,16.87
2022-12-19T04:59:35.717Z,16.23
2022-12-19T05:01:57.590Z,15.50
2022-12-19T05:04:19.828Z,17.33
2022-12-19T05:06:41.336Z,17.07
2022-12-19T05:09:02.929Z,16.07
2022-12-19T05:11:24.537Z,16.97
2022-12-19T05:13:46.093Z,16.37
2022-12-19T05:16:10.792Z,16.63
2022-12-19T05:18:32.687Z,17.77
2022-12-19T05:20:54.639Z,17.27
2022-12-19T05:23:17.420Z,17.40
2022-12-19T05:25:39.450Z,16.90
2022-12-19T05:28:00.933Z,18.10
2022-12-19T05:30:24.439Z,17.47
2022-12-19T05:32:45.911Z,17.33
2022-12-19T05:35:08.314Z,17.53
2022-12-19T05:37:29.958Z,17.17
2022-12-19T05:39:51.527Z,17.97
2022-12-19T05:42:13.043Z,17.80
2022-12-19T05:44:34.573Z,18.87
2022-12-19T05:46:56.209Z,18.67
2022-12-19T05:49:17.826Z,18.90
2022-12-19T05:51:39.463Z,17.83
2022-12-19T05:54:01.324Z,18.83
2022-12-19T05:56:23.433Z,19.90
2022-12-19T05:58:45.817Z,18.60
2022-12-19T06:01:10.304Z,19.23
2022-12-19T06:03:31.918Z,18.23
2022-12-19T06:05:53.675Z,18.70
2022-12-19T06:08:15.130Z,17.57
2022-12-19T06:10:36.636Z,17.53
2022-12-19T06:12:58.110Z,19.47
2022-12-19T06:15:19.725Z,17.87
2022-12-19T06:17:41.212Z,20.13
2022-12-19T06:20:02.763Z,19.80
2022-12-19T06:22:24.271Z,18.53
2022-12-19T06:24:45.769Z,18.93
2022-12-19T06:27:07.278Z,19.57
2022-12-19T06:29:28.809Z,19.57
2022-12-19T06:31:50.322Z,18.70
2022-12-19T06:34:22.073Z,19.80
2022-12-19T06:36:53.708Z,19.17
2022-12-19T06:39:15.784Z,17.33
2022-12-19T06:41:55.663Z,19.50
2022-12-19T06:44:17.834Z,19.73
2022-12-19T06:46:40.313Z,21.07
2022-12-19T06:49:02.489Z,20.27
2022-12-19T06:51:24.217Z,19.67
2022-12-19T06:53:45.691Z,19.50
2022-12-19T06:56:07.343Z,19.07
2022-12-19T06:58:28.997Z,19.67
2022-12-19T07:00:50.610Z,19.73
2022-12-19T07:03:14.874Z,19.67
2022-12-19T07:05:36.582Z,18.17
2022-12-19T07:07:58.049Z,19.13
2022-12-19T07:10:19.667Z,19.00
2022-12-19T07:12:41.230Z,19.63
2022-12-19T07:15:02.819Z,19.87
2022-12-19T07:17:25.931Z,18.80
2022-12-19T07:19:47.734Z,20.27
2022-12-19T07:22:09.703Z,19.67
2022-12-19T07:24:31.996Z,19.90
2022-12-19T07:26:53.600Z,20.13
2022-12-19T07:29:15.206Z,18.63
2022-12-19T07:31:36.746Z,19.90
2022-12-19T07:33:58.530Z,19.77
2022-12-19T07:36:21.198Z,20.07
2022-12-19T07:38:42.683Z,21.43
2022-12-19T07:41:04.211Z,19.43
2022-12-19T07:43:26.090Z,22.13
2022-12-19T07:45:53.659Z,20.63
2022-12-19T07:48:15.219Z,19.57
2022-12-19T07:50:37.105Z,20.40
2022-12-19T07:52:59.217Z,20.00
2022-12-19T07:55:20.832Z,20.73
2022-12-19T07:57:42.331Z,21.23
2022-12-19T08:00:04.843Z,20.63
2022-12-19T08:02:26.473Z,22.37
2022-12-19T08:04:48.171Z,20.43
2022-12-19T08:07:09.644Z,20.80
2022-12-19T08:09:31.477Z,19.60
2022-12-19T08:11:53.706Z,20.97
2022-12-19T08:14:15.246Z,21.13
2022-12-19T08:16:55.524Z,21.70
2022-12-19T08:19:18.217Z,20.90
2022-12-19T08:21:39.693Z,21.17
2022-12-19T08:24:01.255Z,20.73
2022-12-19T08:26:26.744Z,21.07
2022-12-19T08:28:48.254Z,21.87
2022-12-19T08:31:12.621Z,20.53
2022-12-19T08:33:34.569Z,21.77
2022-12-19T08:35:56.063Z,21.17
2022-12-19T08:38:17.596Z,20.93
2022-12-19T08:40:44.215Z,20.77
2022-12-19T08:43:08.652Z,22.37
2022-12-19T08:45:30.513Z,20.63
2022-12-19T08:47:52.774Z,20.77
2022-12-19T08:50:14.422Z,22.40
2022-12-19T08:52:36.321Z,21.57
2022-12-19T08:54:58.067Z,21.10
2022-12-19T08:57:19.583Z,22.83
2022-12-19T08:59:41.123Z,21.07
2022-12-19T09:02:06.058Z,22.07
2022-12-19T09:05:57.617Z,23.23
2022-12-19T09:07:10.132Z,23.30
2022-12-19T09:09:31.621Z,22.37
2022-12-19T10:26:51.861Z,28.77
2022-12-19T10:31:57.669Z,25.53
2022-12-19T10:34:28.576Z,24.53
2022-12-19T10:37:25.549Z,26.90
2022-12-19T10:40:24.468Z,25.80
2022-12-19T10:43:03.294Z,26.53
2022-12-19T10:45:40.586Z,25.67
2022-12-19T10:48:04.643Z,24.73
2022-12-19T10:50:29.710Z,25.03
2022-12-19T10:52:56.835Z,25.73
2022-12-19T10:55:27.273Z,26.20
2022-12-19T10:57:48.850Z,26.33
2022-12-19T11:00:18.213Z,26.23
2022-12-19T11:02:42.386Z,25.93
2022-12-19T11:05:22.184Z,25.03
2022-12-19T11:08:03.833Z,26.17
2022-12-19T11:12:47.444Z,26.07
2022-12-19T11:19:30.243Z,26.20
2022-12-19T11:21:27.024Z,24.70
2022-12-19T11:29:27.341Z,24.63
2022-12-19T11:29:30.012Z,25.10
2022-12-19T11:29:31.958Z,23.43
2022-12-19T11:30:46.602Z,26.23
2022-12-19T11:33:16.536Z,26.07
2022-12-19T11:35:51.240Z,26.60
2022-12-19T11:38:16.889Z,27.03
2022-12-19T11:40:52.994Z,26.67
2022-12-19T11:46:13.879Z,26.50
2022-12-19T11:48:48.137Z,26.57
2022-12-19T11:51:40.095Z,27.20
2022-12-19T11:54:18.937Z,27.03
2022-12-19T11:56:41.005Z,24.33
2022-12-19T11:59:12.321Z,26.90
2022-12-19T12:01:54.316Z,26.37
2022-12-19T12:04:33.893Z,25.50
2022-12-19T12:06:57.833Z,26.03
2022-12-19T12:13:21.486Z,26.03
2022-12-19T12:19:58.960Z,26.27
2022-12-19T12:25:20.517Z,26.43
2022-12-19T12:31:01.644Z,25.33
2022-12-19T12:31:23.775Z,25.23
2022-12-19T12:31:44.721Z,25.70
2022-12-19T12:31:49.682Z,25.80
2022-12-19T12:35:46.221Z,25.57
2022-12-19T12:40:47.123Z,25.00
2022-12-19T12:43:17.678Z,26.23
2022-12-19T12:45:41.978Z,28.30
2022-12-19T12:48:07.771Z,25.70
2022-12-19T12:50:31.405Z,27.03
2022-12-19T12:52:58.126Z,26.90
2022-12-19T12:55:33.813Z,26.90
2022-12-19T12:57:55.777Z,28.23
2022-12-19T13:00:29.476Z,27.30
2022-12-19T13:02:58.387Z,27.53
2022-12-19T13:05:22.914Z,27.70
2022-12-19T13:07:54.117Z,27.07
2022-12-19T13:10:18.736Z,27.83
2022-12-19T13:13:03.856Z,27.80
2022-12-19T13:15:32.674Z,29.30
2022-12-19T13:17:54.101Z,27.77
2022-12-19T13:20:18.466Z,27.90
2022-12-19T13:22:42.579Z,25.27
2022-12-19T13:25:26.589Z,25.43
2022-12-19T13:27:48.504Z,26.90
2022-12-19T13:30:17.354Z,27.13
2022-12-19T13:32:38.812Z,26.03
2022-12-19T13:35:06.981Z,25.63
2022-12-19T13:39:54.619Z,26.43
2022-12-19T13:41:02.134Z,25.10
2022-12-19T13:43:46.393Z,26.00
2022-12-19T13:46:32.919Z,26.07
2022-12-19T13:49:02.911Z,26.97
2022-12-19T13:51:24.447Z,26.57
2022-12-19T13:53:45.963Z,26.07
2022-12-19T13:56:19.334Z,24.93
2022-12-19T13:59:05.035Z,25.93
2022-12-19T14:01:35.871Z,25.63
2022-12-19T14:04:07.987Z,26.07
2022-12-19T14:06:45.127Z,24.87
2022-12-19T14:11:24.227Z,26.90
2022-12-19T14:13:47.925Z,27.40
2022-12-19T14:15:13.407Z,28.50
2022-12-19T14:17:35.316Z,26.83
2022-12-19T14:20:34.069Z,28.33
2022-12-19T14:22:38.366Z,25.40
2022-12-19T14:25:50.190Z,28.57
2022-12-19T14:28:19.731Z,28.40
2022-12-19T14:30:35.258Z,26.70
2022-12-19T14:33:47.344Z,27.23
2022-12-19T14:36:15.204Z,26.60
2022-12-19T14:39:25.486Z,27.43
2022-12-19T14:41:47.366Z,26.00
2022-12-19T14:52:44.955Z,26.87
2022-12-19T14:53:52.662Z,27.60
2022-12-19T14:54:21.865Z,25.00
2022-12-19T14:54:29.065Z,26.43
2022-12-19T14:56:26.709Z,26.10
2022-12-19T14:58:56.994Z,25.80
2022-12-19T15:01:26.194Z,27.80
2022-12-19T15:04:51.789Z,28.13
2022-12-19T15:07:06.674Z,26.47
2022-12-19T15:11:04.446Z,27.33
2022-12-19T15:14:47.461Z,26.87
2022-12-19T15:15:25.432Z,26.37
2022-12-19T15:17:49.780Z,27.90
2022-12-19T15:20:11.429Z,26.57
2022-12-19T15:22:32.911Z,29.00
2022-12-19T15:24:54.507Z,27.50
2022-12-19T15:27:17.341Z,28.00
2022-12-19T15:29:38.971Z,28.17
2022-12-19T15:32:00.553Z,27.07
2022-12-19T15:34:34.885Z,27.40
2022-12-19T15:36:58.709Z,26.20
2022-12-19T15:39:20.911Z,28.93
2022-12-19T15:41:43.612Z,27.80
2022-12-19T15:44:10.130Z,28.73
2022-12-19T15:46:32.526Z,28.47
2022-12-19T15:48:54.208Z,26.33
2022-12-19T15:51:16.787Z,26.47
2022-12-19T15:53:41.105Z,27.50
2022-12-19T15:56:03.214Z,27.13
2022-12-19T15:58:28.369Z,28.17
2022-12-19T16:00:56.332Z,31.17
2022-12-19T16:03:23.512Z,28.13
2022-12-19T16:05:46.917Z,28.37
2022-12-19T16:08:19.569Z,26.87
2022-12-19T16:10:42.076Z,28.07
2022-12-19T16:13:03.975Z,26.13
2022-12-19T16:15:30.209Z,26.73
2022-12-19T16:17:52.471Z,27.13
2022-12-19T16:20:19.977Z,26.87
2022-12-19T16:22:42.544Z,26.03
2022-12-19T16:25:04.394Z,26.30
2022-12-19T16:27:31.011Z,26.63
2022-12-19T16:29:54.161Z,27.00
2022-12-19T16:32:16.354Z,27.33
2022-12-19T16:34:37.881Z,26.10
2022-12-19T16:36:59.347Z,27.83
2022-12-19T16:39:20.905Z,25.57
2022-12-19T16:41:44.194Z,27.37
2022-12-19T16:44:18.971Z,28.57
2022-12-19T16:46:44.232Z,28.30
2022-12-19T16:49:16.880Z,26.93
2022-12-19T16:51:38.725Z,28.33
2022-12-19T16:54:00.457Z,28.97
2022-12-19T16:56:25.639Z,28.23
2022-12-19T16:58:47.141Z,26.43
2022-12-19T17:01:10.317Z,28.00
2022-12-19T17:03:37.429Z,27.93
2022-12-19T17:05:59.183Z,26.97
2022-12-19T17:08:20.715Z,28.53
2022-12-19T17:10:45.244Z,26.93
2022-12-19T17:13:06.967Z,27.93
2022-12-19T17:15:34.430Z,28.17
2022-12-19T17:17:59.328Z,28.47
2022-12-19T17:20:23.289Z,28.73
2022-12-19T17:22:45.435Z,28.53
2022-12-19T17:25:18.693Z,29.53
2022-12-19T17:27:40.199Z,28.03
2022-12-19T17:30:01.699Z,27.63
2022-12-19T17:32:24.503Z,27.83
2022-12-19T17:34:46.309Z,28.90
2022-12-19T17:37:15.250Z,27.57
2022-12-19T17:39:37.909Z,26.47
2022-12-19T17:42:04.347Z,27.77
2022-12-19T17:44:25.847Z,27.27
2022-12-19T17:46:47.845Z,28.30
2022-12-19T17:49:16.975Z,59.03
2022-12-19T17:51:38.537Z,28.57
2022-12-19T17:54:00.033Z,28.83
2022-12-19T17:56:22.225Z,27.00
2022-12-19T17:58:43.912Z,26.57
2022-12-19T18:01:05.849Z,27.60
2022-12-19T18:03:27.512Z,27.17
2022-12-19T18:05:51.269Z,28.30
2022-12-19T18:08:32.482Z,25.40
2022-12-19T18:10:56.632Z,25.33
2022-12-19T18:13:18.242Z,26.60
2022-12-19T18:15:40.959Z,25.57
2022-12-19T18:18:02.541Z,26.90
2022-12-19T18:20:32.593Z,28.00
2022-12-19T18:22:55.936Z,28.43
2022-12-19T18:25:20.585Z,25.80
2022-12-19T18:27:42.576Z,29.73
2022-12-19T18:30:04.869Z,28.73
2022-12-19T18:32:26.493Z,29.30
2022-12-19T18:34:48.000Z,24.73
2022-12-19T18:37:14.940Z,25.97
2022-12-19T18:39:36.481Z,27.03
2022-12-19T18:41:58.088Z,23.90
2022-12-19T18:44:20.463Z,25.73
2022-12-19T18:46:42.621Z,24.87
2022-12-19T18:49:04.606Z,24.60
2022-12-19T18:51:26.116Z,26.13
2022-12-19T18:53:49.084Z,26.43
2022-12-19T18:56:11.214Z,26.07
2022-12-19T18:58:33.353Z,24.13
2022-12-19T19:00:59.369Z,27.00
2022-12-19T19:03:26.088Z,25.17
2022-12-19T19:05:47.871Z,24.10
2022-12-19T19:08:17.709Z,24.50
2022-12-19T19:10:39.287Z,25.17
2022-12-19T19:13:05.173Z,25.20
2022-12-19T19:15:33.630Z,25.57
2022-12-19T19:18:13.350Z,27.90
2022-12-19T19:20:38.637Z,26.63
2022-12-19T19:23:00.779Z,27.43
2022-12-19T19:25:22.317Z,26.67
2022-12-19T19:27:43.920Z,25.90
2022-12-19T19:30:06.613Z,27.23
2022-12-19T19:32:28.139Z,27.13
2022-12-19T19:34:49.865Z,29.13
2022-12-19T19:37:13.980Z,29.83
2022-12-19T19:39:35.710Z,27.57
2022-12-19T19:41:57.276Z,26.53
2022-12-19T19:44:18.896Z,26.60
2022-12-19T19:46:40.459Z,25.77
2022-12-19T19:49:02.007Z,27.33
2022-12-19T19:51:23.609Z,26.80
2022-12-19T19:53:45.983Z,27.20
2022-12-19T19:56:08.566Z,27.77
2022-12-19T19:58:30.460Z,28.17
2022-12-19T20:00:53.170Z,27.13
2022-12-19T20:03:22.308Z,26.00
2022-12-19T20:05:44.709Z,28.03
2022-12-19T20:08:06.539Z,27.43
2022-12-19T20:10:28.043Z,28.07
2022-12-19T20:12:49.509Z,26.00
2022-12-19T20:15:11.956Z,26.20
2022-12-19T20:17:33.537Z,28.07
2022-12-19T20:19:55.041Z,26.77
2022-12-19T20:22:16.679Z,28.50
2022-12-19T20:24:38.290Z,43.10
2022-12-19T20:26:59.901Z,34.17
2022-12-19T20:29:21.463Z,42.60
2022-12-19T20:31:44.073Z,30.63
2022-12-19T20:34:05.826Z,27.57
2022-12-19T20:36:27.364Z,27.33
2022-12-19T20:38:49.430Z,27.87
2022-12-19T20:41:10.975Z,34.23
2022-12-19T20:43:33.740Z,29.27
2022-12-19T20:46:03.646Z,32.87
2022-12-19T20:48:25.141Z,27.97
2022-12-19T20:50:46.617Z,27.27
2022-12-19T20:53:08.408Z,26.93
2022-12-19T20:55:29.893Z,27.77
2022-12-19T20:57:51.354Z,27.80
2022-12-19T21:00:14.836Z,28.17
2022-12-19T21:02:52.997Z,26.87
2022-12-19T21:05:19.657Z,27.87
2022-12-19T21:07:41.191Z,31.13
2022-12-19T21:10:02.700Z,40.10
2022-12-19T21:12:24.191Z,32.30
2022-12-19T21:14:45.681Z,26.97
2022-12-19T21:17:07.145Z,28.80
2022-12-19T21:19:28.629Z,27.97
2022-12-19T21:21:50.208Z,27.43
2022-12-19T21:24:12.117Z,26.83
2022-12-19T21:26:34.093Z,28.40
2022-12-19T21:28:57.990Z,26.67
2022-12-19T21:31:22.435Z,27.70
2022-12-19T21:33:45.576Z,27.90
2022-12-19T21:36:09.592Z,26.47
2022-12-19T21:38:31.084Z,28.33
2022-12-19T21:40:52.622Z,29.07
2022-12-19T21:43:14.364Z,27.27
2022-12-19T21:45:35.878Z,27.73
2022-12-19T21:47:57.349Z,26.60
2022-12-19T21:50:18.832Z,28.30
2022-12-19T21:52:40.818Z,29.03
2022-12-19T21:55:02.569Z,26.57
2022-12-19T21:57:24.060Z,26.87
2022-12-19T21:59:45.649Z,25.63
2022-12-19T22:02:10.534Z,27.27
2022-12-19T22:04:32.138Z,27.13
2022-12-19T22:06:53.771Z,28.40
2022-12-19T22:09:17.883Z,27.60
2022-12-19T22:11:39.613Z,28.17
2022-12-19T22:14:01.718Z,26.07
2022-12-19T22:16:23.263Z,28.10
2022-12-19T22:18:45.091Z,28.10
2022-12-19T22:21:09.278Z,26.07
2022-12-19T22:23:30.870Z,25.83
2022-12-19T22:26:07.043Z,28.90
2022-12-19T22:28:34.144Z,25.63
2022-12-19T22:30:55.629Z,25.87
2022-12-19T22:33:17.102Z,26.87
2022-12-19T22:35:38.669Z,27.30
2022-12-19T22:38:00.189Z,27.23
2022-12-19T22:40:21.718Z,27.30
2022-12-19T22:42:43.210Z,28.67
2022-12-19T22:45:05.124Z,27.77
2022-12-19T22:47:26.618Z,27.47
2022-12-19T22:49:52.175Z,27.00
2022-12-19T22:52:13.713Z,26.90
2022-12-19T22:54:35.169Z,28.67
2022-12-19T22:56:56.689Z,28.23
2022-12-19T22:59:18.202Z,27.00
2022-12-19T23:01:42.722Z,26.10
2022-12-19T23:04:06.791Z,27.63
2022-12-19T23:06:30.932Z,29.07
2022-12-19T23:08:52.524Z,27.37
2022-12-19T23:11:17.609Z,26.30
2022-12-19T23:13:40.666Z,27.27
2022-12-19T23:16:02.234Z,26.90
2022-12-19T23:18:24.115Z,25.70
2022-12-19T23:20:45.668Z,26.27
2022-12-19T23:23:07.168Z,26.10
2022-12-19T23:25:28.666Z,26.73
2022-12-19T23:27:50.163Z,24.87
2022-12-19T23:30:11.909Z,26.70
2022-12-19T23:32:33.390Z,27.60
2022-12-19T23:34:54.895Z,27.30
2022-12-19T23:37:16.337Z,27.90
2022-12-19T23:39:37.881Z,26.73
2022-12-19T23:41:59.804Z,26.07
2022-12-19T23:44:21.593Z,26.30
2022-12-19T23:46:43.084Z,26.53
2022-12-19T23:49:04.602Z,25.87
2022-12-19T23:51:27.277Z,26.33
2022-12-19T23:53:48.910Z,26.27
2022-12-19T23:56:13.996Z,25.37
2022-12-19T23:58:35.561Z,26.80
